sensor_id;sensor_type;location;lat;lon;timestamp;temperature;humidity
13642;DHT22;6894;52.196;9.904;2023-04-29T00:00:07;13.10;99.90
13642;DHT22;6894;52.196;9.904;2023-04-29T00:02:34;13.00;99.90
13642;DHT22;6894;52.196;9.904;2023-04-29T00:05:03;13.00;99.90
13642;DHT22;6894;52.196;9.904;2023-04-29T00:07:30;12.00;99.90
13642;DHT22;6894;52.196;9.904;2023-04-29T00:09:58;12.80;99.90
13642;DHT22;6894;52.196;9.904;2023-04-29T00:12:25;12.80;99.90
13642;DHT22;6894;52.196;9.904;2023-04-29T00:14:52;12.80;99.90
13642;DHT22;6894;52.196;9.904;2023-04-29T00:17:19;12.80;99.90
13642;DHT22;6894;52.196;9.904;2023-04-29T00:19:46;12.70;99.90
13642;DHT22;6894;52.196;9.904;2023-04-29T00:22:16;12.70;99.90
13642;DHT22;6894;52.196;9.904;2023-04-29T00:24:43;12.60;99.90
13642;DHT22;6894;52.196;9.904;2023-04-29T00:27:10;12.60;99.90
13642;DHT22;6894;52.196;9.904;2023-04-29T00:29:37;12.60;99.90
13642;DHT22;6894;52.196;9.904;2023-04-29T00:32:04;12.60;99.90
13642;DHT22;6894;52.196;9.904;2023-04-29T00:34:31;12.60;99.90
13642;DHT22;6894;52.196;9.904;2023-04-29T00:36:57;12.60;99.90
13642;DHT22;6894;52.196;9.904;2023-04-29T00:39:26;12.50;99.90
13642;DHT22;6894;52.196;9.904;2023-04-29T00:41:53;12.50;99.90
13642;DHT22;6894;52.196;9.904;2023-04-29T00:44:19;12.60;99.90
13642;DHT22;6894;52.196;9.904;2023-04-29T00:46:46;12.50;99.90
13642;DHT22;6894;52.196;9.904;2023-04-29T00:49:13;12.50;99.90
13642;DHT22;6894;52.196;9.904;2023-04-29T00:51:41;12.50;99.90
13642;DHT22;6894;52.196;9.904;2023-04-29T00:54:09;12.50;99.90
13642;DHT22;6894;52.196;9.904;2023-04-29T00:56:38;12.40;99.90
13642;DHT22;6894;52.196;9.904;2023-04-29T00:59:07;12.40;99.90
13642;DHT22;6894;52.196;9.904;2023-04-29T01:01:35;12.40;99.90
13642;DHT22;6894;52.196;9.904;2023-04-29T01:04:04;12.40;99.90
13642;DHT22;6894;52.196;9.904;2023-04-29T01:06:40;12.40;99.90
13642;DHT22;6894;52.196;9.904;2023-04-29T01:09:25;12.40;99.90
13642;DHT22;6894;52.196;9.904;2023-04-29T01:12:01;12.30;99.90
13642;DHT22;6894;52.196;9.904;2023-04-29T01:14:32;12.20;99.90
13642;DHT22;6894;52.196;9.904;2023-04-29T01:17:05;12.20;99.90
13642;DHT22;6894;52.196;9.904;2023-04-29T01:19:39;12.20;99.90
13642;DHT22;6894;52.196;9.904;2023-04-29T01:22:10;12.20;99.90
13642;DHT22;6894;52.196;9.904;2023-04-29T01:24:38;11.40;99.90
13642;DHT22;6894;52.196;9.904;2023-04-29T01:27:12;12.10;99.90
13642;DHT22;6894;52.196;9.904;2023-04-29T01:29:44;12.10;99.90
13642;DHT22;6894;52.196;9.904;2023-04-29T01:32:17;12.00;99.90
13642;DHT22;6894;52.196;9.904;2023-04-29T01:34:50;12.00;99.90
13642;DHT22;6894;52.196;9.904;2023-04-29T01:37:32;12.00;99.90
13642;DHT22;6894;52.196;9.904;2023-04-29T01:40:08;11.90;99.90
13642;DHT22;6894;52.196;9.904;2023-04-29T01:42:39;11.90;99.90
13642;DHT22;6894;52.196;9.904;2023-04-29T01:45:10;11.90;99.90
13642;DHT22;6894;52.196;9.904;2023-04-29T01:47:40;11.90;99.90
13642;DHT22;6894;52.196;9.904;2023-04-29T01:50:08;11.90;99.90
13642;DHT22;6894;52.196;9.904;2023-04-29T01:52:35;11.90;99.90
13642;DHT22;6894;52.196;9.904;2023-04-29T01:55:02;11.90;99.90
13642;DHT22;6894;52.196;9.904;2023-04-29T01:57:30;11.80;99.90
13642;DHT22;6894;52.196;9.904;2023-04-29T01:59:57;11.80;99.90
13642;DHT22;6894;52.196;9.904;2023-04-29T02:02:24;11.80;99.90
13642;DHT22;6894;52.196;9.904;2023-04-29T02:04:51;11.80;99.90
13642;DHT22;6894;52.196;9.904;2023-04-29T02:07:17;11.80;99.90
13642;DHT22;6894;52.196;9.904;2023-04-29T02:09:44;11.80;99.90
13642;DHT22;6894;52.196;9.904;2023-04-29T02:12:11;11.80;99.90
13642;DHT22;6894;52.196;9.904;2023-04-29T02:14:39;11.80;99.90
13642;DHT22;6894;52.196;9.904;2023-04-29T02:17:06;11.70;99.90
13642;DHT22;6894;52.196;9.904;2023-04-29T02:19:32;11.70;99.90
13642;DHT22;6894;52.196;9.904;2023-04-29T02:21:59;11.70;99.90
13642;DHT22;6894;52.196;9.904;2023-04-29T02:24:26;11.70;99.90
13642;DHT22;6894;52.196;9.904;2023-04-29T02:26:53;11.70;99.90
13642;DHT22;6894;52.196;9.904;2023-04-29T02:29:20;11.70;99.90
13642;DHT22;6894;52.196;9.904;2023-04-29T02:31:48;11.70;99.90
13642;DHT22;6894;52.196;9.904;2023-04-29T02:34:15;11.70;99.90
13642;DHT22;6894;52.196;9.904;2023-04-29T02:36:42;11.70;99.90
13642;DHT22;6894;52.196;9.904;2023-04-29T02:39:09;11.50;99.90
13642;DHT22;6894;52.196;9.904;2023-04-29T02:41:36;11.50;99.90
13642;DHT22;6894;52.196;9.904;2023-04-29T02:44:02;11.50;99.90
13642;DHT22;6894;52.196;9.904;2023-04-29T02:46:29;11.50;99.90
13642;DHT22;6894;52.196;9.904;2023-04-29T02:48:59;11.50;99.90
13642;DHT22;6894;52.196;9.904;2023-04-29T02:51:26;11.40;99.90
13642;DHT22;6894;52.196;9.904;2023-04-29T02:53:53;11.40;99.90
13642;DHT22;6894;52.196;9.904;2023-04-29T02:56:20;11.40;99.90
13642;DHT22;6894;52.196;9.904;2023-04-29T02:58:47;11.30;99.90
13642;DHT22;6894;52.196;9.904;2023-04-29T03:01:14;11.40;99.90
13642;DHT22;6894;52.196;9.904;2023-04-29T03:03:41;11.40;99.90
13642;DHT22;6894;52.196;9.904;2023-04-29T03:06:09;11.40;99.90
13642;DHT22;6894;52.196;9.904;2023-04-29T03:08:36;11.30;99.90
13642;DHT22;6894;52.196;9.904;2023-04-29T03:11:02;11.30;99.90
13642;DHT22;6894;52.196;9.904;2023-04-29T03:13:29;11.30;99.90
13642;DHT22;6894;52.196;9.904;2023-04-29T03:15:56;11.30;99.90
13642;DHT22;6894;52.196;9.904;2023-04-29T03:18:25;11.30;99.90
13642;DHT22;6894;52.196;9.904;2023-04-29T03:20:51;11.40;99.90
13642;DHT22;6894;52.196;9.904;2023-04-29T03:23:20;11.40;99.90
13642;DHT22;6894;52.196;9.904;2023-04-29T03:25:47;11.40;99.90
13642;DHT22;6894;52.196;9.904;2023-04-29T03:28:14;11.30;99.90
13642;DHT22;6894;52.196;9.904;2023-04-29T03:30:41;11.20;99.90
13642;DHT22;6894;52.196;9.904;2023-04-29T03:33:07;11.30;99.90
13642;DHT22;6894;52.196;9.904;2023-04-29T03:35:34;11.20;99.90
13642;DHT22;6894;52.196;9.904;2023-04-29T03:38:01;11.20;99.90
13642;DHT22;6894;52.196;9.904;2023-04-29T03:40:29;11.10;99.90
13642;DHT22;6894;52.196;9.904;2023-04-29T03:42:56;11.10;99.90
13642;DHT22;6894;52.196;9.904;2023-04-29T03:45:25;11.10;99.90
13642;DHT22;6894;52.196;9.904;2023-04-29T03:47:51;11.10;99.90
13642;DHT22;6894;52.196;9.904;2023-04-29T03:50:18;11.10;99.90
13642;DHT22;6894;52.196;9.904;2023-04-29T03:52:45;11.00;99.90
13642;DHT22;6894;52.196;9.904;2023-04-29T03:55:12;11.00;99.90
13642;DHT22;6894;52.196;9.904;2023-04-29T03:57:40;11.00;99.90
13642;DHT22;6894;52.196;9.904;2023-04-29T04:00:08;10.90;99.90
13642;DHT22;6894;52.196;9.904;2023-04-29T04:02:35;10.90;99.90
13642;DHT22;6894;52.196;9.904;2023-04-29T04:05:02;10.90;99.90
13642;DHT22;6894;52.196;9.904;2023-04-29T04:07:28;10.80;99.90
13642;DHT22;6894;52.196;9.904;2023-04-29T04:09:55;10.80;99.90
13642;DHT22;6894;52.196;9.904;2023-04-29T04:12:22;10.80;99.90
13642;DHT22;6894;52.196;9.904;2023-04-29T04:14:50;10.80;99.90
13642;DHT22;6894;52.196;9.904;2023-04-29T04:17:17;10.80;99.90
13642;DHT22;6894;52.196;9.904;2023-04-29T04:19:44;10.80;99.90
13642;DHT22;6894;52.196;9.904;2023-04-29T04:22:10;10.70;99.90
13642;DHT22;6894;52.196;9.904;2023-04-29T04:24:37;10.70;99.90
13642;DHT22;6894;52.196;9.904;2023-04-29T04:27:04;10.70;99.90
13642;DHT22;6894;52.196;9.904;2023-04-29T04:29:31;10.70;99.90
13642;DHT22;6894;52.196;9.904;2023-04-29T04:31:59;10.70;99.90
13642;DHT22;6894;52.196;9.904;2023-04-29T04:34:27;10.60;99.90
13642;DHT22;6894;52.196;9.904;2023-04-29T04:36:53;10.70;99.90
13642;DHT22;6894;52.196;9.904;2023-04-29T04:39:20;10.60;99.90
13642;DHT22;6894;52.196;9.904;2023-04-29T04:41:47;10.60;99.90
13642;DHT22;6894;52.196;9.904;2023-04-29T04:44:14;10.60;99.90
13642;DHT22;6894;52.196;9.904;2023-04-29T04:46:41;10.50;99.90
13642;DHT22;6894;52.196;9.904;2023-04-29T04:49:09;10.50;99.90
13642;DHT22;6894;52.196;9.904;2023-04-29T04:51:36;10.50;99.90
13642;DHT22;6894;52.196;9.904;2023-04-29T04:54:03;10.50;99.90
13642;DHT22;6894;52.196;9.904;2023-04-29T04:56:29;10.50;99.90
13642;DHT22;6894;52.196;9.904;2023-04-29T04:58:56;10.40;99.90
13642;DHT22;6894;52.196;9.904;2023-04-29T05:01:23;10.50;99.90
13642;DHT22;6894;52.196;9.904;2023-04-29T05:03:50;10.40;99.90
13642;DHT22;6894;52.196;9.904;2023-04-29T05:06:18;10.40;99.90
13642;DHT22;6894;52.196;9.904;2023-04-29T05:08:44;10.40;99.90
13642;DHT22;6894;52.196;9.904;2023-04-29T05:11:15;10.50;99.90
13642;DHT22;6894;52.196;9.904;2023-04-29T05:13:43;10.50;99.90
13642;DHT22;6894;52.196;9.904;2023-04-29T05:16:10;10.50;99.90
13642;DHT22;6894;52.196;9.904;2023-04-29T05:18:36;10.50;99.90
13642;DHT22;6894;52.196;9.904;2023-04-29T05:21:03;10.40;99.90
13642;DHT22;6894;52.196;9.904;2023-04-29T05:23:31;10.40;99.90
13642;DHT22;6894;52.196;9.904;2023-04-29T05:25:58;10.50;99.90
13642;DHT22;6894;52.196;9.904;2023-04-29T05:28:25;10.50;99.90
13642;DHT22;6894;52.196;9.904;2023-04-29T05:30:52;10.50;99.90
13642;DHT22;6894;52.196;9.904;2023-04-29T05:33:19;10.50;99.90
13642;DHT22;6894;52.196;9.904;2023-04-29T05:35:46;10.40;99.90
13642;DHT22;6894;52.196;9.904;2023-04-29T05:38:13;10.50;99.90
13642;DHT22;6894;52.196;9.904;2023-04-29T05:40:41;10.40;99.90
13642;DHT22;6894;52.196;9.904;2023-04-29T05:43:08;10.30;99.90
13642;DHT22;6894;52.196;9.904;2023-04-29T05:45:35;10.30;99.90
13642;DHT22;6894;52.196;9.904;2023-04-29T05:48:02;10.30;99.90
13642;DHT22;6894;52.196;9.904;2023-04-29T05:50:29;10.30;99.90
13642;DHT22;6894;52.196;9.904;2023-04-29T05:52:56;10.30;99.90
13642;DHT22;6894;52.196;9.904;2023-04-29T05:55:23;10.20;99.90
13642;DHT22;6894;52.196;9.904;2023-04-29T05:57:51;10.20;99.90
13642;DHT22;6894;52.196;9.904;2023-04-29T06:00:18;10.20;99.90
13642;DHT22;6894;52.196;9.904;2023-04-29T06:02:45;10.20;99.90
13642;DHT22;6894;52.196;9.904;2023-04-29T06:05:12;10.20;99.90
13642;DHT22;6894;52.196;9.904;2023-04-29T06:07:39;10.20;99.90
13642;DHT22;6894;52.196;9.904;2023-04-29T06:10:07;10.20;99.90
13642;DHT22;6894;52.196;9.904;2023-04-29T06:12:34;10.10;99.90
13642;DHT22;6894;52.196;9.904;2023-04-29T06:15:03;10.00;99.90
13642;DHT22;6894;52.196;9.904;2023-04-29T06:17:30;10.00;99.90
13642;DHT22;6894;52.196;9.904;2023-04-29T06:19:57;9.90;99.90
13642;DHT22;6894;52.196;9.904;2023-04-29T06:22:25;9.90;99.90
13642;DHT22;6894;52.196;9.904;2023-04-29T06:24:51;9.90;99.90
13642;DHT22;6894;52.196;9.904;2023-04-29T06:27:18;10.00;99.90
13642;DHT22;6894;52.196;9.904;2023-04-29T06:29:45;10.00;99.90
13642;DHT22;6894;52.196;9.904;2023-04-29T06:32:13;10.00;99.90
13642;DHT22;6894;52.196;9.904;2023-04-29T06:34:40;10.00;99.90
13642;DHT22;6894;52.196;9.904;2023-04-29T06:37:07;10.00;99.90
13642;DHT22;6894;52.196;9.904;2023-04-29T06:39:33;9.90;99.90
13642;DHT22;6894;52.196;9.904;2023-04-29T06:42:00;10.00;99.90
13642;DHT22;6894;52.196;9.904;2023-04-29T06:44:28;10.00;99.90
13642;DHT22;6894;52.196;9.904;2023-04-29T06:46:54;10.10;99.90
13642;DHT22;6894;52.196;9.904;2023-04-29T06:49:23;10.00;99.90
13642;DHT22;6894;52.196;9.904;2023-04-29T06:51:50;10.10;99.90
13642;DHT22;6894;52.196;9.904;2023-04-29T06:54:16;10.10;99.90
13642;DHT22;6894;52.196;9.904;2023-04-29T06:56:43;10.20;99.90
13642;DHT22;6894;52.196;9.904;2023-04-29T06:59:10;10.10;99.90
13642;DHT22;6894;52.196;9.904;2023-04-29T07:01:37;10.10;99.90
13642;DHT22;6894;52.196;9.904;2023-04-29T07:04:04;10.10;99.90
13642;DHT22;6894;52.196;9.904;2023-04-29T07:06:32;10.10;99.90
13642;DHT22;6894;52.196;9.904;2023-04-29T07:08:59;10.10;99.90
13642;DHT22;6894;52.196;9.904;2023-04-29T07:11:26;10.10;99.90
13642;DHT22;6894;52.196;9.904;2023-04-29T07:13:53;10.10;99.90
13642;DHT22;6894;52.196;9.904;2023-04-29T07:16:20;10.20;99.90
13642;DHT22;6894;52.196;9.904;2023-04-29T07:18:47;10.20;99.90
13642;DHT22;6894;52.196;9.904;2023-04-29T07:21:14;10.20;99.90
13642;DHT22;6894;52.196;9.904;2023-04-29T07:23:42;10.10;99.90
13642;DHT22;6894;52.196;9.904;2023-04-29T07:26:09;10.20;99.90
13642;DHT22;6894;52.196;9.904;2023-04-29T07:28:36;10.20;99.90
13642;DHT22;6894;52.196;9.904;2023-04-29T07:31:03;10.20;99.90
13642;DHT22;6894;52.196;9.904;2023-04-29T07:33:30;10.20;99.90
13642;DHT22;6894;52.196;9.904;2023-04-29T07:35:57;10.20;99.90
13642;DHT22;6894;52.196;9.904;2023-04-29T07:38:24;10.20;99.90
13642;DHT22;6894;52.196;9.904;2023-04-29T07:40:52;10.30;99.90
13642;DHT22;6894;52.196;9.904;2023-04-29T07:43:19;10.30;99.90
13642;DHT22;6894;52.196;9.904;2023-04-29T07:45:46;10.30;99.90
13642;DHT22;6894;52.196;9.904;2023-04-29T07:48:13;10.40;99.90
13642;DHT22;6894;52.196;9.904;2023-04-29T07:50:40;10.60;99.90
13642;DHT22;6894;52.196;9.904;2023-04-29T07:53:07;10.70;99.90
13642;DHT22;6894;52.196;9.904;2023-04-29T07:55:36;10.70;99.90
13642;DHT22;6894;52.196;9.904;2023-04-29T07:58:04;10.90;99.90
13642;DHT22;6894;52.196;9.904;2023-04-29T08:00:31;10.90;99.90
13642;DHT22;6894;52.196;9.904;2023-04-29T08:02:58;11.10;99.90
13642;DHT22;6894;52.196;9.904;2023-04-29T08:05:25;11.40;99.90
13642;DHT22;6894;52.196;9.904;2023-04-29T08:07:52;11.70;99.90
13642;DHT22;6894;52.196;9.904;2023-04-29T08:10:19;12.10;99.90
13642;DHT22;6894;52.196;9.904;2023-04-29T08:12:47;12.20;99.90
13642;DHT22;6894;52.196;9.904;2023-04-29T08:15:15;12.30;99.90
13642;DHT22;6894;52.196;9.904;2023-04-29T08:17:43;12.30;99.90
13642;DHT22;6894;52.196;9.904;2023-04-29T08:20:10;12.20;99.90
13642;DHT22;6894;52.196;9.904;2023-04-29T08:22:37;12.20;99.90
13642;DHT22;6894;52.196;9.904;2023-04-29T08:25:05;12.20;99.90
13642;DHT22;6894;52.196;9.904;2023-04-29T08:27:32;12.20;99.90
13642;DHT22;6894;52.196;9.904;2023-04-29T08:29:59;12.30;99.90
13642;DHT22;6894;52.196;9.904;2023-04-29T08:32:27;12.50;99.90
13642;DHT22;6894;52.196;9.904;2023-04-29T08:34:53;12.60;99.90
13642;DHT22;6894;52.196;9.904;2023-04-29T08:37:20;12.80;99.90
13642;DHT22;6894;52.196;9.904;2023-04-29T08:39:47;13.10;99.90
13642;DHT22;6894;52.196;9.904;2023-04-29T08:42:14;13.50;99.90
13642;DHT22;6894;52.196;9.904;2023-04-29T08:44:42;13.50;99.90
13642;DHT22;6894;52.196;9.904;2023-04-29T08:47:09;13.90;99.90
13642;DHT22;6894;52.196;9.904;2023-04-29T08:49:37;14.10;99.90
13642;DHT22;6894;52.196;9.904;2023-04-29T08:52:04;14.50;99.90
13642;DHT22;6894;52.196;9.904;2023-04-29T08:54:31;14.80;99.90
13642;DHT22;6894;52.196;9.904;2023-04-29T08:56:59;15.00;99.90
13642;DHT22;6894;52.196;9.904;2023-04-29T08:59:27;14.70;99.90
13642;DHT22;6894;52.196;9.904;2023-04-29T09:01:55;14.50;99.90
13642;DHT22;6894;52.196;9.904;2023-04-29T09:04:29;14.70;99.90
13642;DHT22;6894;52.196;9.904;2023-04-29T09:07:00;14.90;99.90
13642;DHT22;6894;52.196;9.904;2023-04-29T09:09:27;15.00;99.90
13642;DHT22;6894;52.196;9.904;2023-04-29T09:11:54;14.60;99.90
13642;DHT22;6894;52.196;9.904;2023-04-29T09:14:22;14.50;99.90
13642;DHT22;6894;52.196;9.904;2023-04-29T09:16:49;14.30;99.90
13642;DHT22;6894;52.196;9.904;2023-04-29T09:19:28;14.50;99.90
13642;DHT22;6894;52.196;9.904;2023-04-29T09:21:56;14.40;99.90
13642;DHT22;6894;52.196;9.904;2023-04-29T09:24:26;14.10;99.90
13642;DHT22;6894;52.196;9.904;2023-04-29T09:26:53;14.10;99.90
13642;DHT22;6894;52.196;9.904;2023-04-29T09:29:20;14.20;99.90
13642;DHT22;6894;52.196;9.904;2023-04-29T09:31:47;14.20;99.90
13642;DHT22;6894;52.196;9.904;2023-04-29T09:34:14;14.30;99.90
13642;DHT22;6894;52.196;9.904;2023-04-29T09:36:43;14.40;99.90
13642;DHT22;6894;52.196;9.904;2023-04-29T09:39:12;14.20;99.90
13642;DHT22;6894;52.196;9.904;2023-04-29T09:41:55;14.20;99.90
13642;DHT22;6894;52.196;9.904;2023-04-29T09:44:25;14.20;99.90
13642;DHT22;6894;52.196;9.904;2023-04-29T09:46:55;14.20;99.90
13642;DHT22;6894;52.196;9.904;2023-04-29T09:49:24;14.10;99.90
13642;DHT22;6894;52.196;9.904;2023-04-29T09:51:52;14.10;99.90
13642;DHT22;6894;52.196;9.904;2023-04-29T09:54:20;14.40;99.90
13642;DHT22;6894;52.196;9.904;2023-04-29T09:56:49;14.50;99.90
13642;DHT22;6894;52.196;9.904;2023-04-29T09:59:16;14.70;99.90
13642;DHT22;6894;52.196;9.904;2023-04-29T10:01:47;14.80;99.90
13642;DHT22;6894;52.196;9.904;2023-04-29T10:04:15;15.00;99.90
13642;DHT22;6894;52.196;9.904;2023-04-29T10:06:44;14.90;99.90
13642;DHT22;6894;52.196;9.904;2023-04-29T10:09:13;14.90;99.90
13642;DHT22;6894;52.196;9.904;2023-04-29T10:11:42;14.70;99.90
13642;DHT22;6894;52.196;9.904;2023-04-29T10:14:13;14.60;99.90
13642;DHT22;6894;52.196;9.904;2023-04-29T10:16:45;14.60;99.90
13642;DHT22;6894;52.196;9.904;2023-04-29T10:19:18;14.50;99.90
13642;DHT22;6894;52.196;9.904;2023-04-29T10:21:48;14.50;99.90
13642;DHT22;6894;52.196;9.904;2023-04-29T10:24:16;14.50;99.90
13642;DHT22;6894;52.196;9.904;2023-04-29T10:26:46;14.40;99.90
13642;DHT22;6894;52.196;9.904;2023-04-29T10:29:14;14.30;99.90
13642;DHT22;6894;52.196;9.904;2023-04-29T10:31:43;14.30;99.90
13642;DHT22;6894;52.196;9.904;2023-04-29T10:34:11;14.20;99.90
13642;DHT22;6894;52.196;9.904;2023-04-29T10:36:39;14.40;99.90
13642;DHT22;6894;52.196;9.904;2023-04-29T10:39:12;14.50;99.90
13642;DHT22;6894;52.196;9.904;2023-04-29T10:41:43;14.50;99.90
13642;DHT22;6894;52.196;9.904;2023-04-29T10:44:11;14.60;99.90
13642;DHT22;6894;52.196;9.904;2023-04-29T10:46:39;14.40;99.90
13642;DHT22;6894;52.196;9.904;2023-04-29T10:49:06;14.20;99.90
13642;DHT22;6894;52.196;9.904;2023-04-29T10:51:34;14.10;99.90
13642;DHT22;6894;52.196;9.904;2023-04-29T10:54:07;14.20;99.90
13642;DHT22;6894;52.196;9.904;2023-04-29T10:56:42;14.30;99.90
13642;DHT22;6894;52.196;9.904;2023-04-29T10:59:10;14.30;99.90
13642;DHT22;6894;52.196;9.904;2023-04-29T11:01:44;14.30;99.90
13642;DHT22;6894;52.196;9.904;2023-04-29T11:04:12;14.10;99.90
13642;DHT22;6894;52.196;9.904;2023-04-29T11:06:44;14.00;99.90
13642;DHT22;6894;52.196;9.904;2023-04-29T11:09:14;14.00;99.90
13642;DHT22;6894;52.196;9.904;2023-04-29T11:11:56;14.20;99.90
13642;DHT22;6894;52.196;9.904;2023-04-29T11:14:25;14.30;99.90
13642;DHT22;6894;52.196;9.904;2023-04-29T11:16:56;14.50;99.90
13642;DHT22;6894;52.196;9.904;2023-04-29T11:19:25;14.70;99.90
13642;DHT22;6894;52.196;9.904;2023-04-29T11:22:13;14.90;99.90
13642;DHT22;6894;52.196;9.904;2023-04-29T11:24:53;15.00;99.90
13642;DHT22;6894;52.196;9.904;2023-04-29T11:27:22;15.10;99.90
13642;DHT22;6894;52.196;9.904;2023-04-29T11:29:51;15.10;99.90
13642;DHT22;6894;52.196;9.904;2023-04-29T11:32:21;15.20;99.90
13642;DHT22;6894;52.196;9.904;2023-04-29T11:34:49;15.30;99.90
13642;DHT22;6894;52.196;9.904;2023-04-29T11:37:21;15.30;99.90
13642;DHT22;6894;52.196;9.904;2023-04-29T11:39:49;15.40;99.90
13642;DHT22;6894;52.196;9.904;2023-04-29T11:42:20;15.20;99.90
13642;DHT22;6894;52.196;9.904;2023-04-29T11:44:50;14.70;99.90
13642;DHT22;6894;52.196;9.904;2023-04-29T11:47:18;14.60;99.90
13642;DHT22;6894;52.196;9.904;2023-04-29T11:49:47;14.50;99.90
13642;DHT22;6894;52.196;9.904;2023-04-29T11:52:14;14.40;99.90
13642;DHT22;6894;52.196;9.904;2023-04-29T11:54:41;14.30;99.90
13642;DHT22;6894;52.196;9.904;2023-04-29T11:57:09;14.30;99.90
13642;DHT22;6894;52.196;9.904;2023-04-29T11:59:36;14.30;99.90
13642;DHT22;6894;52.196;9.904;2023-04-29T12:02:03;14.40;99.90
13642;DHT22;6894;52.196;9.904;2023-04-29T12:04:30;14.50;99.90
13642;DHT22;6894;52.196;9.904;2023-04-29T12:06:58;14.40;99.90
13642;DHT22;6894;52.196;9.904;2023-04-29T12:09:25;14.50;99.90
13642;DHT22;6894;52.196;9.904;2023-04-29T12:11:52;14.60;99.90
13642;DHT22;6894;52.196;9.904;2023-04-29T12:14:19;14.70;99.90
13642;DHT22;6894;52.196;9.904;2023-04-29T12:16:46;14.80;99.90
13642;DHT22;6894;52.196;9.904;2023-04-29T12:19:14;15.00;99.90
13642;DHT22;6894;52.196;9.904;2023-04-29T12:21:48;15.10;99.90
13642;DHT22;6894;52.196;9.904;2023-04-29T12:24:19;15.00;99.90
13642;DHT22;6894;52.196;9.904;2023-04-29T12:26:46;15.10;99.90
13642;DHT22;6894;52.196;9.904;2023-04-29T12:29:14;15.10;99.90
13642;DHT22;6894;52.196;9.904;2023-04-29T12:31:41;15.10;99.90
13642;DHT22;6894;52.196;9.904;2023-04-29T12:34:08;15.40;99.90
13642;DHT22;6894;52.196;9.904;2023-04-29T12:36:35;15.50;99.90
13642;DHT22;6894;52.196;9.904;2023-04-29T12:39:05;15.40;99.90
13642;DHT22;6894;52.196;9.904;2023-04-29T12:41:40;15.50;99.90
13642;DHT22;6894;52.196;9.904;2023-04-29T12:44:07;15.60;99.90
13642;DHT22;6894;52.196;9.904;2023-04-29T12:46:36;15.70;99.90
13642;DHT22;6894;52.196;9.904;2023-04-29T12:49:04;15.60;99.90
13642;DHT22;6894;52.196;9.904;2023-04-29T12:51:31;15.70;99.90
13642;DHT22;6894;52.196;9.904;2023-04-29T12:53:58;15.70;99.90
13642;DHT22;6894;52.196;9.904;2023-04-29T12:56:26;15.70;99.90
13642;DHT22;6894;52.196;9.904;2023-04-29T12:58:54;15.80;99.90
13642;DHT22;6894;52.196;9.904;2023-04-29T13:01:21;15.80;99.90
13642;DHT22;6894;52.196;9.904;2023-04-29T13:03:48;15.60;99.90
13642;DHT22;6894;52.196;9.904;2023-04-29T13:06:16;15.40;99.90
13642;DHT22;6894;52.196;9.904;2023-04-29T13:08:42;15.40;99.90
13642;DHT22;6894;52.196;9.904;2023-04-29T13:11:09;15.40;99.90
13642;DHT22;6894;52.196;9.904;2023-04-29T13:13:38;15.20;99.90
13642;DHT22;6894;52.196;9.904;2023-04-29T13:16:07;15.20;99.90
13642;DHT22;6894;52.196;9.904;2023-04-29T13:18:34;15.10;99.90
13642;DHT22;6894;52.196;9.904;2023-04-29T13:21:01;15.20;99.90
13642;DHT22;6894;52.196;9.904;2023-04-29T13:23:28;15.30;99.90
13642;DHT22;6894;52.196;9.904;2023-04-29T13:25:55;15.30;99.90
13642;DHT22;6894;52.196;9.904;2023-04-29T13:28:21;15.40;99.90
13642;DHT22;6894;52.196;9.904;2023-04-29T13:30:48;15.40;99.90
13642;DHT22;6894;52.196;9.904;2023-04-29T13:33:18;15.30;99.90
13642;DHT22;6894;52.196;9.904;2023-04-29T13:35:45;15.30;99.90
13642;DHT22;6894;52.196;9.904;2023-04-29T13:38:13;15.60;99.90
13642;DHT22;6894;52.196;9.904;2023-04-29T13:40:40;15.30;99.90
13642;DHT22;6894;52.196;9.904;2023-04-29T13:43:07;15.30;99.90
13642;DHT22;6894;52.196;9.904;2023-04-29T13:45:34;15.20;99.90
13642;DHT22;6894;52.196;9.904;2023-04-29T13:48:01;15.30;99.90
13642;DHT22;6894;52.196;9.904;2023-04-29T13:50:29;15.30;99.90
13642;DHT22;6894;52.196;9.904;2023-04-29T13:52:56;15.20;99.90
13642;DHT22;6894;52.196;9.904;2023-04-29T13:55:23;15.10;99.90
13642;DHT22;6894;52.196;9.904;2023-04-29T13:57:49;15.00;99.90
13642;DHT22;6894;52.196;9.904;2023-04-29T14:00:17;15.00;99.90
13642;DHT22;6894;52.196;9.904;2023-04-29T14:02:44;15.00;99.90
13642;DHT22;6894;52.196;9.904;2023-04-29T14:05:12;14.90;99.90
13642;DHT22;6894;52.196;9.904;2023-04-29T14:07:40;15.00;99.90
13642;DHT22;6894;52.196;9.904;2023-04-29T14:10:07;14.90;99.90
13642;DHT22;6894;52.196;9.904;2023-04-29T14:12:34;14.80;99.90
13642;DHT22;6894;52.196;9.904;2023-04-29T14:15:01;14.70;99.90
13642;DHT22;6894;52.196;9.904;2023-04-29T14:17:28;14.70;99.90
13642;DHT22;6894;52.196;9.904;2023-04-29T14:19:55;14.70;99.90
13642;DHT22;6894;52.196;9.904;2023-04-29T14:22:22;14.60;99.90
13642;DHT22;6894;52.196;9.904;2023-04-29T14:24:50;14.70;99.90
13642;DHT22;6894;52.196;9.904;2023-04-29T14:27:17;14.80;99.90
13642;DHT22;6894;52.196;9.904;2023-04-29T14:29:43;14.70;99.90
13642;DHT22;6894;52.196;9.904;2023-04-29T14:32:10;15.70;99.90
13642;DHT22;6894;52.196;9.904;2023-04-29T14:34:37;14.80;99.90
13642;DHT22;6894;52.196;9.904;2023-04-29T14:37:04;14.80;99.90
13642;DHT22;6894;52.196;9.904;2023-04-29T14:39:31;14.80;99.90
13642;DHT22;6894;52.196;9.904;2023-04-29T14:41:59;14.70;99.90
13642;DHT22;6894;52.196;9.904;2023-04-29T14:44:27;14.70;99.90
13642;DHT22;6894;52.196;9.904;2023-04-29T14:46:53;14.80;99.90
13642;DHT22;6894;52.196;9.904;2023-04-29T14:49:20;14.80;99.90
13642;DHT22;6894;52.196;9.904;2023-04-29T14:51:47;14.90;99.90
13642;DHT22;6894;52.196;9.904;2023-04-29T14:54:14;14.90;99.90
13642;DHT22;6894;52.196;9.904;2023-04-29T14:56:41;14.80;99.90
13642;DHT22;6894;52.196;9.904;2023-04-29T14:59:09;14.80;99.90
13642;DHT22;6894;52.196;9.904;2023-04-29T15:01:36;14.80;99.90
13642;DHT22;6894;52.196;9.904;2023-04-29T15:04:04;14.70;99.90
13642;DHT22;6894;52.196;9.904;2023-04-29T15:06:31;14.80;99.90
13642;DHT22;6894;52.196;9.904;2023-04-29T15:08:57;14.80;99.90
13642;DHT22;6894;52.196;9.904;2023-04-29T15:11:24;14.80;99.90
13642;DHT22;6894;52.196;9.904;2023-04-29T15:13:51;14.80;99.90
13642;DHT22;6894;52.196;9.904;2023-04-29T15:16:19;14.90;99.90
13642;DHT22;6894;52.196;9.904;2023-04-29T15:18:46;14.70;99.90
13642;DHT22;6894;52.196;9.904;2023-04-29T15:21:13;14.80;99.90
13642;DHT22;6894;52.196;9.904;2023-04-29T15:23:39;14.80;99.90
13642;DHT22;6894;52.196;9.904;2023-04-29T15:26:06;14.90;99.90
13642;DHT22;6894;52.196;9.904;2023-04-29T15:28:33;14.90;99.90
13642;DHT22;6894;52.196;9.904;2023-04-29T15:31:00;14.90;99.90
13642;DHT22;6894;52.196;9.904;2023-04-29T15:33:30;15.10;99.90
13642;DHT22;6894;52.196;9.904;2023-04-29T15:35:57;15.20;99.90
13642;DHT22;6894;52.196;9.904;2023-04-29T15:38:24;15.20;99.90
13642;DHT22;6894;52.196;9.904;2023-04-29T15:40:51;15.40;99.90
13642;DHT22;6894;52.196;9.904;2023-04-29T15:43:23;15.50;99.90
13642;DHT22;6894;52.196;9.904;2023-04-29T15:45:50;15.50;99.90
13642;DHT22;6894;52.196;9.904;2023-04-29T15:48:16;15.40;99.90
13642;DHT22;6894;52.196;9.904;2023-04-29T15:50:45;15.30;99.90